Time;durP1;ratioP1;P1;durP2;ratioP2;P2;SDS_P1;SDS_P2;PMS_P1;PMS_P2;Temp;Humidity;BMP_temperature;BMP_pressure;BME280_temperature;BME280_humidity;BME280_pressure;Samples;Min_cycle;Max_cycle;Signal;HPM_P1;HPM_P2
2022/09/18 00:00:55;;;;;;;4.35;0.80;;;19.70;64.40;;;;;;5071807;28;20567;-72
2022/09/18 00:03:20;;;;;;;4.97;0.70;;;19.70;64.40;;;;;;5072174;28;20131;-71
2022/09/18 00:05:46;;;;;;;3.03;0.50;;;19.70;64.40;;;;;;5072469;28;20075;-72
2022/09/18 00:08:12;;;;;;;3.08;0.60;;;19.70;64.40;;;;;;5071631;28;20559;-71
2022/09/18 00:10:41;;;;;;;3.00;0.55;;;19.70;64.40;;;;;;5072707;28;20483;-72
2022/09/18 00:13:07;;;;;;;1.92;0.52;;;19.70;64.40;;;;;;5054426;28;20047;-72
2022/09/18 00:15:35;;;;;;;2.70;0.60;;;19.70;64.40;;;;;;5071380;28;20507;-72
2022/09/18 00:18:01;;;;;;;;;;;19.70;64.40;;;;;;5072893;28;20040;-72
2022/09/18 00:20:26;;;;;;;2.30;0.60;;;19.70;64.40;;;;;;5071532;28;19927;-72
2022/09/18 00:22:52;;;;;;;2.38;0.68;;;19.60;64.40;;;;;;5072265;28;20056;-71
2022/09/18 00:25:18;;;;;;;3.15;0.50;;;19.60;64.40;;;;;;5072358;28;20048;-72
2022/09/18 00:27:43;;;;;;;2.15;0.55;;;19.60;64.40;;;;;;5071795;28;20048;-71
2022/09/18 00:30:09;;;;;;;1.90;0.50;;;19.60;64.40;;;;;;5072042;28;20459;-71
2022/09/18 00:32:35;;;;;;;2.42;0.70;;;19.60;64.40;;;;;;5071896;28;20044;-71
2022/09/18 00:35:00;;;;;;;4.20;0.60;;;19.60;64.40;;;;;;5071512;28;20072;-71
2022/09/18 00:37:27;;;;;;;2.53;0.60;;;19.60;64.50;;;;;;5071876;28;20071;-72
2022/09/18 00:39:52;;;;;;;4.68;0.70;;;19.60;64.50;;;;;;5072587;28;20040;-72
2022/09/18 00:42:18;;;;;;;2.22;0.50;;;19.60;64.40;;;;;;5071518;28;20381;-71
2022/09/18 00:44:45;;;;;;;4.28;0.57;;;19.60;64.40;;;;;;5072401;28;20041;-71
2022/09/18 00:47:10;;;;;;;2.40;0.63;;;19.60;64.50;;;;;;5053762;28;20040;-72
2022/09/18 00:50:10;;;;;;;2.58;0.60;;;19.60;64.40;;;;;;5071571;28;20049;-71
2022/09/18 00:52:47;;;;;;;1.67;0.50;;;19.60;64.40;;;;;;5072353;28;20048;-72
2022/09/18 00:55:17;;;;;;;3.05;0.52;;;19.60;64.40;;;;;;5054286;28;20475;-72
2022/09/18 00:57:48;;;;;;;2.20;0.75;;;19.60;64.50;;;;;;5053409;28;20048;-71
2022/09/18 01:00:14;;;;;;;1.02;0.47;;;19.60;64.40;;;;;;5075858;28;20049;-71
2022/09/18 01:02:40;;;;;;;2.67;0.60;;;19.60;64.40;;;;;;5075162;28;20045;-72
2022/09/18 01:05:06;;;;;;;6.85;0.52;;;19.60;64.40;;;;;;5041504;28;20480;-72
2022/09/18 01:08:03;;;;;;;2.97;0.60;;;19.60;64.40;;;;;;5024971;28;20057;-72
2022/09/18 01:10:45;;;;;;;3.05;0.80;;;19.60;64.40;;;;;;5057196;28;20052;-72
2022/09/18 01:13:32;;;;;;;2.10;0.60;;;19.60;64.50;;;;;;5058104;28;20040;-72
2022/09/18 01:16:07;;;;;;;2.58;0.43;;;19.60;64.40;;;;;;5076040;28;20047;-72
2022/09/18 01:18:46;;;;;;;1.70;0.40;;;19.60;64.40;;;;;;5057213;28;20051;-72
2022/09/18 01:21:15;;;;;;;2.63;0.65;;;19.60;64.40;;;;;;5058059;28;20052;-72
2022/09/18 01:23:59;;;;;;;2.72;0.80;;;19.60;64.40;;;;;;5057031;28;20045;-72
2022/09/18 01:27:04;;;;;;;1.98;0.40;;;19.50;64.40;;;;;;5057510;28;20044;-71
2022/09/18 01:29:34;;;;;;;3.30;0.55;;;19.50;64.40;;;;;;5057305;28;20048;-71
2022/09/18 01:32:11;;;;;;;2.05;0.52;;;19.50;64.50;;;;;;5056738;28;20060;-72
2022/09/18 01:34:57;;;;;;;2.58;0.50;;;19.50;64.40;;;;;;5057552;28;20048;-71
2022/09/18 01:37:36;;;;;;;2.65;0.50;;;19.50;64.40;;;;;;5041109;28;20098;-71
2022/09/18 01:40:26;;;;;;;2.15;0.60;;;19.50;64.50;;;;;;5040000;28;20052;-71
2022/09/18 01:42:52;;;;;;;2.70;0.70;;;19.50;64.40;;;;;;5042029;28;20052;-71
2022/09/18 01:45:22;;;;;;;2.20;0.43;;;19.50;64.40;;;;;;5040035;28;20033;-71
2022/09/18 01:47:56;;;;;;;2.33;0.50;;;19.50;64.40;;;;;;5041123;28;20135;-71
2022/09/18 01:50:23;;;;;;;2.15;0.50;;;19.50;64.50;;;;;;5057719;28;20047;-71
2022/09/18 01:53:09;;;;;;;1.90;0.60;;;19.50;64.50;;;;;;5056704;28;20492;-71
2022/09/18 01:55:35;;;;;;;2.22;0.43;;;19.50;64.50;;;;;;5057334;28;20049;-71
2022/09/18 01:58:11;;;;;;;2.65;0.50;;;19.50;64.50;;;;;;5056946;28;20090;-72
2022/09/18 02:00:38;;;;;;;1.88;0.43;;;19.50;64.50;;;;;;5036650;28;20037;-72
2022/09/18 02:03:10;;;;;;;2.13;0.65;;;19.50;64.50;;;;;;5035315;28;20072;-72
2022/09/18 02:05:47;;;;;;;3.15;0.50;;;19.50;64.50;;;;;;5003933;28;20099;-72
2022/09/18 02:08:28;;;;;;;2.25;0.50;;;19.50;64.50;;;;;;5022007;28;20037;-72
2022/09/18 02:10:56;;;;;;;2.38;0.40;;;19.50;64.50;;;;;;5004183;28;20053;-72
2022/09/18 02:13:25;;;;;;;1.98;0.50;;;19.50;64.50;;;;;;5019786;28;20052;-72
2022/09/18 02:15:51;;;;;;;1.98;0.40;;;19.50;64.60;;;;;;5020778;28;20107;-72
2022/09/18 02:18:20;;;;;;;2.75;0.50;;;19.50;64.60;;;;;;5036690;28;20044;-71
2022/09/18 02:20:45;;;;;;;1.75;0.60;;;19.40;64.50;;;;;;5019889;28;20499;-71
2022/09/18 02:23:14;;;;;;;3.55;0.60;;;19.40;64.50;;;;;;5054642;28;20124;-71
2022/09/18 02:26:07;;;;;;;2.50;0.50;;;19.50;64.60;;;;;;5036767;28;20044;-72
2022/09/18 02:28:33;;;;;;;1.58;0.50;;;19.40;64.50;;;;;;5022028;28;20059;-71
2022/09/18 02:30:59;;;;;;;1.60;0.30;;;19.40;64.50;;;;;;5020012;28;20124;-71
2022/09/18 02:33:34;;;;;;;2.42;0.47;;;19.40;64.60;;;;;;5054120;28;20488;-71
2022/09/18 02:36:19;;;;;;;3.90;0.68;;;19.40;65.20;;;;;;5053427;28;20564;-72
2022/09/18 02:39:15;;;;;;;2.38;0.40;;;19.40;64.60;;;;;;5054568;28;20200;-72
2022/09/18 02:42:07;;;;;;;2.05;0.40;;;19.50;64.60;;;;;;5035857;28;20041;-72
2022/09/18 02:44:42;;;;;;;1.83;0.40;;;19.40;64.60;;;;;;5039121;28;20053;-72
2022/09/18 02:47:14;;;;;;;1.85;0.57;;;19.40;64.70;;;;;;5020073;28;20166;-72
2022/09/18 02:50:05;;;;;;;3.60;0.70;;;19.40;64.70;;;;;;5053422;28;20052;-73
2022/09/18 02:52:54;;;;;;;4.00;0.60;;;19.40;64.70;;;;;;5053846;28;20048;-72
2022/09/18 02:55:30;;;;;;;3.15;0.60;;;19.40;64.70;;;;;;5035151;28;20045;-72
2022/09/18 02:57:59;;;;;;;2.03;0.40;;;19.40;64.80;;;;;;5036293;28;20045;-71
2022/09/18 03:00:28;;;;;;;1.35;0.45;;;19.40;64.70;;;;;;5019751;28;20041;-71
2022/09/18 03:02:57;;;;;;;2.58;0.60;;;19.40;64.70;;;;;;5018899;28;20037;-71
2022/09/18 03:05:24;;;;;;;3.53;0.50;;;19.40;64.80;;;;;;5053206;28;20052;-71
2022/09/18 03:07:49;;;;;;;1.23;0.50;;;19.40;64.70;;;;;;5053718;28;20045;-72
2022/09/18 03:10:18;;;;;;;2.88;0.47;;;19.40;64.80;;;;;;5034242;28;20082;-71
2022/09/18 03:12:43;;;;;;;2.22;0.50;;;19.50;64.90;;;;;;5052568;28;20083;-71
2022/09/18 03:15:10;;;;;;;1.40;0.35;;;19.50;64.80;;;;;;5053385;28;20393;-71
2022/09/18 03:17:35;;;;;;;1.40;0.50;;;19.50;64.80;;;;;;5052528;28;20404;-71
2022/09/18 03:20:02;;;;;;;1.80;0.50;;;19.50;64.70;;;;;;5053651;28;20036;-71
2022/09/18 03:22:28;;;;;;;2.15;0.32;;;19.50;64.70;;;;;;5034275;28;20053;-70
2022/09/18 03:24:56;;;;;;;2.88;0.45;;;19.50;64.80;;;;;;5052670;28;20051;-70
2022/09/18 03:27:21;;;;;;;;;;;19.50;64.80;;;;;;5053497;28;20068;-71
2022/09/18 03:29:47;;;;;;;2.28;0.35;;;19.50;64.70;;;;;;5053414;28;20029;-70
2022/09/18 03:32:12;;;;;;;0.82;0.25;;;19.50;64.70;;;;;;5051814;28;20064;-71
2022/09/18 03:34:38;;;;;;;2.53;0.50;;;19.50;64.70;;;;;;5053334;28;20556;-71
2022/09/18 03:37:04;;;;;;;1.50;0.38;;;19.50;64.70;;;;;;5053263;28;20515;-70
2022/09/18 03:39:29;;;;;;;1.90;0.40;;;19.50;64.70;;;;;;5052156;28;20048;-71
2022/09/18 03:41:55;;;;;;;2.78;0.40;;;19.60;64.70;;;;;;5053180;28;20045;-72
2022/09/18 03:44:20;;;;;;;2.63;0.38;;;19.60;64.70;;;;;;5052291;28;20029;-71
2022/09/18 03:46:49;;;;;;;2.63;0.50;;;19.60;64.70;;;;;;5052980;28;20481;-71
2022/09/18 03:49:14;;;;;;;;;;;19.50;64.70;;;;;;5053161;28;20051;-71
2022/09/18 03:51:43;;;;;;;3.05;0.50;;;19.60;64.70;;;;;;5052135;28;19917;-71
2022/09/18 03:54:08;;;;;;;1.10;0.40;;;19.60;64.70;;;;;;5034578;28;20041;-71
2022/09/18 03:56:37;;;;;;;1.90;0.43;;;19.50;64.70;;;;;;5052851;28;20102;-72
2022/09/18 03:59:03;;;;;;;1.73;0.50;;;19.60;64.70;;;;;;5051853;28;20052;-70
2022/09/18 04:01:28;;;;;;;1.40;0.40;;;19.60;64.70;;;;;;5039232;28;20053;-70
2022/09/18 04:03:54;;;;;;;2.38;0.50;;;19.60;64.70;;;;;;5067138;28;20416;-70
2022/09/18 04:06:20;;;;;;;2.38;0.50;;;19.60;64.70;;;;;;5052882;28;20496;-71
2022/09/18 04:08:45;;;;;;;2.83;0.40;;;19.60;64.70;;;;;;5072769;28;20476;-71
2022/09/18 04:11:11;;;;;;;1.50;0.40;;;19.60;64.70;;;;;;5072464;28;20101;-71
2022/09/18 04:13:36;;;;;;;2.60;0.40;;;19.60;64.70;;;;;;5071653;28;20124;-72
2022/09/18 04:16:02;;;;;;;1.35;0.30;;;19.60;64.70;;;;;;5072588;28;20556;-71
2022/09/18 04:18:27;;;;;;;1.95;0.32;;;19.60;64.70;;;;;;5072055;28;20055;-70
2022/09/18 04:20:56;;;;;;;1.75;0.32;;;19.60;64.70;;;;;;5071866;28;20043;-70
2022/09/18 04:23:22;;;;;;;2.55;0.52;;;19.60;64.70;;;;;;5072284;28;20063;-71
2022/09/18 04:25:47;;;;;;;3.03;0.65;;;19.60;64.70;;;;;;5072697;28;20048;-71
2022/09/18 04:28:13;;;;;;;1.00;0.30;;;19.60;64.70;;;;;;5071288;28;20056;-70
2022/09/18 04:30:38;;;;;;;1.65;0.40;;;19.60;64.70;;;;;;5048491;28;20052;-71
2022/09/18 04:33:04;;;;;;;1.75;0.30;;;19.60;64.70;;;;;;5052118;28;20068;-70
2022/09/18 04:35:30;;;;;;;2.08;0.40;;;19.60;64.70;;;;;;5033286;28;20435;-70
2022/09/18 04:37:55;;;;;;;2.20;0.40;;;19.60;64.70;;;;;;5034555;28;20041;-71
2022/09/18 04:40:21;;;;;;;2.85;0.60;;;19.60;64.70;;;;;;5051995;28;20037;-71
2022/09/18 04:42:50;;;;;;;1.13;0.32;;;19.60;64.80;;;;;;5051549;28;20049;-71
2022/09/18 04:45:15;;;;;;;2.25;0.22;;;19.60;64.70;;;;;;5051802;28;20480;-71
2022/09/18 04:47:43;;;;;;;2.58;0.50;;;19.60;64.70;;;;;;5051379;28;20041;-71
2022/09/18 04:50:09;;;;;;;1.38;0.30;;;19.60;64.80;;;;;;5051940;28;20048;-72
2022/09/18 04:52:35;;;;;;;1.10;0.40;;;19.60;64.80;;;;;;5052127;28;20049;-71
2022/09/18 04:55:01;;;;;;;3.45;0.47;;;19.60;64.80;;;;;;5051142;28;20049;-71
2022/09/18 04:57:26;;;;;;;1.92;0.40;;;19.60;64.80;;;;;;5034129;28;20516;-72
2022/09/18 04:59:52;;;;;;;1.25;0.40;;;19.60;64.80;;;;;;5052182;28;20133;-71
2022/09/18 05:02:18;;;;;;;2.75;0.50;;;19.50;64.80;;;;;;5050982;28;20131;-71
2022/09/18 05:04:43;;;;;;;2.28;0.50;;;19.50;64.70;;;;;;5052223;28;20127;-71
2022/09/18 05:07:09;;;;;;;0.88;0.38;;;19.50;64.80;;;;;;5051760;28;20045;-71
2022/09/18 05:09:35;;;;;;;1.60;0.40;;;19.60;64.80;;;;;;5051393;28;20048;-71
2022/09/18 05:12:04;;;;;;;1.08;0.38;;;19.60;64.80;;;;;;5034386;28;20492;-71
2022/09/18 05:14:29;;;;;;;1.75;0.40;;;19.60;64.90;;;;;;5051456;28;20060;-71
2022/09/18 05:16:55;;;;;;;2.40;0.40;;;19.60;64.90;;;;;;5050626;28;20053;-71
2022/09/18 05:19:23;;;;;;;1.88;0.30;;;19.60;64.90;;;;;;5051700;28;20132;-71
2022/09/18 05:21:52;;;;;;;1.70;0.40;;;19.60;64.90;;;;;;5052290;28;20137;-71
2022/09/18 05:24:18;;;;;;;1.20;0.40;;;19.60;64.90;;;;;;5050866;28;20064;-70
2022/09/18 05:26:44;;;;;;;2.20;0.40;;;19.60;64.90;;;;;;5051690;28;20489;-70
2022/09/18 05:29:09;;;;;;;2.85;0.40;;;19.60;64.90;;;;;;5051130;28;20029;-70
2022/09/18 05:31:35;;;;;;;1.90;0.30;;;19.60;64.90;;;;;;5064633;28;20053;-71
2022/09/18 05:34:01;;;;;;;2.65;0.30;;;19.60;64.90;;;;;;5072029;28;20033;-72
2022/09/18 05:36:26;;;;;;;1.88;0.47;;;19.60;64.80;;;;;;5071405;28;20578;-71
2022/09/18 05:38:52;;;;;;;1.48;0.30;;;19.60;64.90;;;;;;5071228;28;20098;-72
2022/09/18 05:41:20;;;;;;;2.03;0.75;;;19.60;64.90;;;;;;5071584;28;20040;-72
2022/09/18 05:43:45;;;;;;;;;;;19.70;64.90;;;;;;5071828;28;20147;-72
2022/09/18 05:46:20;;;;;;;1.77;0.40;;;19.60;64.90;;;;;;5072899;28;19928;-72
2022/09/18 05:48:49;;;;;;;1.00;0.30;;;19.60;64.80;;;;;;5071035;28;20067;-72
2022/09/18 05:51:15;;;;;;;2.10;0.40;;;19.70;64.90;;;;;;5064594;28;20045;-71
2022/09/18 05:53:41;;;;;;;2.75;0.40;;;19.70;64.90;;;;;;5054570;28;20093;-72
2022/09/18 05:56:07;;;;;;;1.60;0.38;;;19.70;64.80;;;;;;5051256;28;20051;-71
2022/09/18 05:58:33;;;;;;;1.83;0.40;;;19.70;64.80;;;;;;5041149;28;20049;-71
2022/09/18 06:01:00;;;;;;;1.42;0.35;;;19.70;64.80;;;;;;5062422;28;20044;-71
2022/09/18 06:03:28;;;;;;;2.33;0.40;;;19.80;64.80;;;;;;5063271;28;20041;-70
2022/09/18 06:05:53;;;;;;;1.88;0.50;;;19.80;64.80;;;;;;5063132;28;20435;-70
2022/09/18 06:08:19;;;;;;;1.83;0.88;;;19.80;64.80;;;;;;5062657;28;20131;-71
2022/09/18 06:10:45;;;;;;;2.40;0.40;;;19.80;64.80;;;;;;5065381;28;20040;-71
2022/09/18 06:13:14;;;;;;;1.55;0.30;;;19.80;64.80;;;;;;5062557;28;20052;-71
2022/09/18 06:15:41;;;;;;;1.45;0.40;;;19.80;64.80;;;;;;5065251;28;20129;-72
2022/09/18 06:18:09;;;;;;;2.00;0.55;;;19.90;64.80;;;;;;5046042;28;20049;-72
2022/09/18 06:20:34;;;;;;;;;;;19.90;64.80;;;;;;5062652;28;20041;-71
2022/09/18 06:23:00;;;;;;;1.63;0.43;;;19.90;64.80;;;;;;5074632;28;19916;-71
2022/09/18 06:25:27;;;;;;;0.73;0.30;;;19.90;64.80;;;;;;5074435;28;20048;-71
2022/09/18 06:27:57;;;;;;;2.75;0.50;;;19.90;64.80;;;;;;5074244;28;20037;-71
2022/09/18 06:30:25;;;;;;;4.28;0.30;;;19.90;64.70;;;;;;5073869;28;20164;-71
2022/09/18 06:32:55;;;;;;;1.27;0.30;;;19.90;64.80;;;;;;5074334;28;20123;-71
2022/09/18 06:35:21;;;;;;;1.60;0.30;;;20.00;64.70;;;;;;5073464;28;20043;-71
2022/09/18 06:37:47;;;;;;;1.65;0.30;;;20.00;64.70;;;;;;5071165;28;20037;-71
2022/09/18 06:40:12;;;;;;;2.00;0.30;;;20.00;64.70;;;;;;5068589;28;20734;-73
2022/09/18 06:42:38;;;;;;;1.08;0.20;;;20.00;64.70;;;;;;5064222;28;20040;-67
2022/09/18 06:45:04;;;;;;;1.75;0.30;;;20.00;64.80;;;;;;5062848;28;20044;-73
2022/09/18 06:47:30;;;;;;;2.80;0.30;;;20.00;64.80;;;;;;5061972;28;20793;-72
2022/09/18 06:49:58;;;;;;;3.40;0.45;;;20.00;64.80;;;;;;5063780;28;20035;-68
2022/09/18 06:52:24;;;;;;;1.17;0.30;;;20.10;65.00;;;;;;5064389;28;20040;-72
2022/09/18 06:54:50;;;;;;;3.20;0.60;;;20.10;64.80;;;;;;5053513;28;20041;-71
2022/09/18 06:57:18;;;;;;;9.43;0.68;;;20.10;64.80;;;;;;5053269;28;20047;-72
2022/09/18 06:59:44;;;;;;;8.73;1.02;;;20.10;64.80;;;;;;5053897;28;20577;-73
2022/09/18 07:02:12;;;;;;;7.95;0.60;;;20.10;65.00;;;;;;5035196;28;20040;-68
2022/09/18 07:04:38;;;;;;;5.88;0.70;;;20.10;65.20;;;;;;5034952;28;20040;-70
2022/09/18 07:07:04;;;;;;;9.18;0.50;;;20.20;65.40;;;;;;5049444;28;20060;-70
2022/09/18 07:09:32;;;;;;;6.18;0.50;;;20.20;65.60;;;;;;5037425;28;20549;-72
2022/09/18 07:11:58;;;;;;;;;;;20.30;65.90;;;;;;5055600;28;20072;-72
2022/09/18 07:14:26;;;;;;;8.80;1.17;;;20.30;66.30;;;;;;5059383;28;19931;-73
2022/09/18 07:16:52;;;;;;;;;;;20.40;66.10;;;;;;5054181;28;20052;-73
2022/09/18 07:19:18;;;;;;;3.33;0.73;;;20.40;66.60;;;;;;5072807;28;20018;-70
2022/09/18 07:21:43;;;;;;;4.30;0.70;;;20.40;66.20;;;;;;5072948;28;20097;-73
2022/09/18 07:24:09;;;;;;;7.75;0.55;;;20.50;66.40;;;;;;5072038;28;20182;-71
2022/09/18 07:26:34;;;;;;;8.00;0.80;;;20.50;66.60;;;;;;5073215;28;20486;-70
2022/09/18 07:29:00;;;;;;;7.22;0.80;;;20.50;66.80;;;;;;5073009;28;20044;-66
2022/09/18 07:31:26;;;;;;;11.73;1.15;;;20.60;66.90;;;;;;5071521;28;20576;-71
2022/09/18 07:33:52;;;;;;;6.10;0.68;;;20.60;66.90;;;;;;5072860;28;20504;-71
2022/09/18 07:36:20;;;;;;;3.20;0.55;;;20.60;66.80;;;;;;5072424;28;20059;-70
2022/09/18 07:38:50;;;;;;;5.15;0.70;;;20.70;67.10;;;;;;5072327;28;20051;-74
2022/09/18 07:41:16;;;;;;;6.95;0.60;;;20.70;67.50;;;;;;5072624;28;20044;-73
2022/09/18 07:43:44;;;;;;;5.50;0.55;;;20.70;67.50;;;;;;5071750;28;20079;-74
2022/09/18 07:46:10;;;;;;;3.58;0.60;;;20.80;67.70;;;;;;5072144;28;20055;-75
2022/09/18 07:48:35;;;;;;;4.95;0.95;;;20.80;67.70;;;;;;5072656;28;20041;-73
2022/09/18 07:51:01;;;;;;;4.47;0.80;;;20.90;67.80;;;;;;5072042;28;20098;-74
2022/09/18 07:53:28;;;;;;;9.07;0.73;;;20.90;67.90;;;;;;5072578;28;20040;-74
2022/09/18 07:55:54;;;;;;;4.80;0.50;;;20.90;68.00;;;;;;5072675;28;20094;-74
2022/09/18 07:58:23;;;;;;;4.28;0.47;;;20.90;68.00;;;;;;5071696;28;20048;-75
2022/09/18 08:00:49;;;;;;;5.28;0.82;;;21.00;68.60;;;;;;5072661;28;20479;-72
2022/09/18 08:03:15;;;;;;;8.20;1.38;;;21.00;68.00;;;;;;5071647;28;20499;-73
2022/09/18 08:05:41;;;;;;;2.85;0.52;;;21.00;68.00;;;;;;5053392;28;20131;-70
2022/09/18 08:08:11;;;;;;;5.40;0.50;;;21.00;67.80;;;;;;5062861;28;20413;-73
2022/09/18 08:10:37;;;;;;;7.90;0.60;;;21.00;67.70;;;;;;5058982;28;20477;-72
2022/09/18 08:13:03;;;;;;;2.53;0.50;;;21.00;67.60;;;;;;5056698;28;20053;-79
2022/09/18 08:15:29;;;;;;;7.10;0.60;;;21.00;67.70;;;;;;5061137;28;20116;-72
2022/09/18 08:17:54;;;;;;;2.92;0.70;;;20.90;67.70;;;;;;5047271;28;20045;-69
2022/09/18 08:20:23;;;;;;;5.97;0.60;;;20.90;67.80;;;;;;5051323;28;20066;-67
2022/09/18 08:22:49;;;;;;;;;;;20.90;67.80;;;;;;5052538;28;20083;-72
2022/09/18 08:25:15;;;;;;;4.63;0.60;;;20.90;67.70;;;;;;5058913;28;19920;-70
2022/09/18 08:27:41;;;;;;;6.03;0.60;;;20.90;67.70;;;;;;5049274;28;20090;-71
2022/09/18 08:30:07;;;;;;;6.47;0.50;;;20.90;67.70;;;;;;5067240;28;20048;-75
2022/09/18 08:32:33;;;;;;;8.20;0.70;;;20.90;67.60;;;;;;5066172;28;20760;-74
2022/09/18 08:35:02;;;;;;;5.28;0.70;;;20.80;67.60;;;;;;5061465;28;20048;-76
2022/09/18 08:37:28;;;;;;;5.57;0.70;;;20.80;67.70;;;;;;5051270;28;20045;-75
2022/09/18 08:39:53;;;;;;;6.75;0.95;;;20.90;67.90;;;;;;5054323;28;20045;-77
2022/09/18 08:42:58;;;;;;;3.00;0.70;;;20.80;68.00;;;;;;5041637;28;20114;-76
2022/09/18 08:45:59;;;;;;;3.38;0.57;;;20.80;68.10;;;;;;5048818;28;20056;-73
2022/09/18 08:48:30;;;;;;;8.68;0.85;;;20.80;68.10;;;;;;5033340;28;20048;-72
2022/09/18 08:50:59;;;;;;;6.40;0.73;;;20.80;68.20;;;;;;5045782;28;20032;-76
2022/09/18 08:53:41;;;;;;;6.00;0.70;;;20.80;68.30;;;;;;5051508;28;20044;-78
2022/09/18 08:56:16;;;;;;;4.85;0.60;;;20.80;68.30;;;;;;5050865;28;20548;-73
2022/09/18 08:58:47;;;;;;;4.60;0.90;;;20.80;68.30;;;;;;5019080;28;20086;-73
2022/09/18 09:01:16;;;;;;;6.68;0.75;;;20.80;68.40;;;;;;5032589;28;20409;-79
2022/09/18 09:04:00;;;;;;;3.70;0.77;;;20.80;68.40;;;;;;5033913;28;20451;-74
2022/09/18 09:06:29;;;;;;;5.43;0.57;;;20.80;68.40;;;;;;5034138;28;20052;-79
2022/09/18 09:09:09;;;;;;;5.18;0.60;;;20.80;68.50;;;;;;5051263;28;20045;-73
2022/09/18 09:11:52;;;;;;;6.32;0.80;;;20.80;68.60;;;;;;5034948;28;20049;-72
2022/09/18 09:14:42;;;;;;;7.07;0.45;;;20.80;68.70;;;;;;5018815;28;20047;-69
2022/09/18 09:17:26;;;;;;;7.82;0.73;;;20.80;68.60;;;;;;5033180;28;20056;-67
2022/09/18 09:19:54;;;;;;;9.45;0.70;;;20.80;68.20;;;;;;5051892;28;20049;-66
2022/09/18 09:22:35;;;;;;;4.50;0.60;;;20.80;67.80;;;;;;5043908;28;20064;-67
2022/09/18 09:25:18;;;;;;;5.65;0.80;;;20.80;67.40;;;;;;5057622;28;20055;-66
2022/09/18 09:27:49;;;;;;;3.80;0.65;;;20.80;67.30;;;;;;5056635;28;20075;-66
2022/09/18 09:30:17;;;;;;;5.50;0.77;;;20.80;67.30;;;;;;5040348;28;20040;-66
2022/09/18 09:33:01;;;;;;;5.10;0.82;;;20.70;67.20;;;;;;5075258;28;20044;-66
2022/09/18 09:35:29;;;;;;;3.10;0.60;;;20.70;67.70;;;;;;5075256;28;20056;-66
2022/09/18 09:37:55;;;;;;;5.18;0.60;;;20.70;67.10;;;;;;5057352;28;20072;-66
2022/09/18 09:40:34;;;;;;;4.10;0.70;;;20.70;67.10;;;;;;5057487;28;20076;-66
2022/09/18 09:43:06;;;;;;;4.00;0.47;;;20.70;67.10;;;;;;5058793;28;20098;-67
2022/09/18 09:45:36;;;;;;;4.70;0.60;;;20.70;67.20;;;;;;5075451;28;20063;-67
2022/09/18 09:48:06;;;;;;;10.23;0.40;;;20.60;67.70;;;;;;5058211;28;20087;-66
2022/09/18 09:50:55;;;;;;;4.28;0.57;;;20.60;67.10;;;;;;5040217;28;20404;-64
2022/09/18 09:53:22;;;;;;;4.38;0.50;;;20.60;67.10;;;;;;5056814;28;20115;-68
2022/09/18 09:56:18;;;;;;;5.85;0.88;;;20.60;67.10;;;;;;5028944;28;20051;-70
2022/09/18 09:59:12;;;;;;;5.00;0.60;;;20.60;67.10;;;;;;5058357;28;20048;-70
2022/09/18 10:01:44;;;;;;;7.30;0.68;;;20.60;67.10;;;;;;5059599;28;20112;-71
2022/09/18 10:04:16;;;;;;;4.22;0.77;;;20.60;67.20;;;;;;5030924;28;20110;-71
2022/09/18 10:06:56;;;;;;;6.65;0.50;;;20.60;67.20;;;;;;5042235;28;20045;-71
2022/09/18 10:10:00;;;;;;;7.32;0.50;;;20.60;67.20;;;;;;5044989;28;20463;-71
2022/09/18 10:12:30;;;;;;;6.07;0.52;;;20.60;67.30;;;;;;5020539;28;20068;-72
2022/09/18 10:15:02;;;;;;;8.27;0.82;;;20.60;67.40;;;;;;5057944;28;20503;-73
2022/09/18 10:17:28;;;;;;;4.00;0.45;;;20.50;67.30;;;;;;5037490;28;20128;-72
2022/09/18 10:19:54;;;;;;;4.35;0.45;;;20.60;67.40;;;;;;5026535;28;20211;-72
2022/09/18 10:22:21;;;;;;;6.85;0.80;;;20.60;67.50;;;;;;5041755;28;20047;-72
2022/09/18 10:25:01;;;;;;;4.43;0.65;;;20.50;67.40;;;;;;5031676;28;20119;-71
2022/09/18 10:27:26;;;;;;;3.35;0.50;;;20.50;67.50;;;;;;5045120;28;20045;-73
2022/09/18 10:29:52;;;;;;;4.13;0.45;;;20.50;67.50;;;;;;5060023;28;20041;-73
2022/09/18 10:32:36;;;;;;;2.35;0.50;;;20.60;67.50;;;;;;5057362;28;20131;-71
2022/09/18 10:35:27;;;;;;;6.00;0.60;;;20.50;67.40;;;;;;5051003;28;20140;-72
2022/09/18 10:37:53;;;;;;;7.00;1.05;;;20.60;67.60;;;;;;5039522;28;20048;-73
2022/09/18 10:40:31;;;;;;;4.82;0.77;;;20.50;67.60;;;;;;5056598;28;20081;-73
2022/09/18 10:42:59;;;;;;;6.20;0.50;;;20.50;67.60;;;;;;5059942;28;20477;-72
2022/09/18 10:45:39;;;;;;;3.33;0.43;;;20.50;67.60;;;;;;5056797;28;20087;-73
2022/09/18 10:48:12;;;;;;;3.53;0.50;;;20.60;67.70;;;;;;5029821;28;20102;-70
2022/09/18 10:50:38;;;;;;;2.08;0.38;;;20.50;67.50;;;;;;5034737;28;20040;-70
2022/09/18 10:53:33;;;;;;;3.17;0.55;;;20.60;67.60;;;;;;5045238;28;20048;-70
2022/09/18 10:56:19;;;;;;;1.77;0.63;;;20.50;67.50;;;;;;5057196;28;20048;-73
2022/09/18 10:58:44;;;;;;;3.97;0.50;;;20.50;67.50;;;;;;5057873;28;20526;-72
2022/09/18 11:01:12;;;;;;;3.42;0.50;;;20.50;67.50;;;;;;5039717;28;20052;-72
2022/09/18 11:03:57;;;;;;;;;;;20.50;68.10;;;;;;5043800;28;20495;-73
2022/09/18 11:06:24;;;;;;;7.55;1.30;;;20.50;67.40;;;;;;5073208;28;19920;-73
2022/09/18 11:08:52;;;;;;;5.68;1.00;;;20.50;67.40;;;;;;5038489;28;20078;-73
2022/09/18 11:11:31;;;;;;;5.55;1.13;;;20.50;67.40;;;;;;5055309;28;20480;-73
2022/09/18 11:13:59;;;;;;;8.45;2.30;;;20.50;67.40;;;;;;5038214;28;20040;-74
2022/09/18 11:16:32;;;;;;;7.28;2.42;;;20.50;67.40;;;;;;5037899;28;20048;-73
2022/09/18 11:19:10;;;;;;;5.25;2.05;;;20.50;67.50;;;;;;5054946;28;20087;-74
2022/09/18 11:21:46;;;;;;;5.00;1.92;;;20.50;67.50;;;;;;5064494;28;20090;-70
2022/09/18 11:24:40;;;;;;;8.45;2.78;;;20.50;67.50;;;;;;5028237;28;20048;-71
2022/09/18 11:27:22;;;;;;;6.78;1.90;;;20.50;67.40;;;;;;5052550;28;20492;-71
2022/09/18 11:29:48;;;;;;;8.02;1.90;;;20.50;67.50;;;;;;5034698;28;21200;-71
2022/09/18 11:32:29;;;;;;;4.88;1.92;;;20.50;67.50;;;;;;5057643;28;20136;-72
2022/09/18 11:34:56;;;;;;;4.60;1.92;;;20.50;67.50;;;;;;5042513;28;20302;-71
2022/09/18 11:37:29;;;;;;;8.73;1.80;;;20.50;67.60;;;;;;5037506;28;20098;-69
2022/09/18 11:40:15;;;;;;;5.95;1.75;;;20.50;67.60;;;;;;5041789;28;20136;-70
2022/09/18 11:42:43;;;;;;;6.10;1.87;;;20.50;67.60;;;;;;5046662;28;20136;-70
2022/09/18 11:45:39;;;;;;;6.27;1.70;;;20.50;67.70;;;;;;5026066;28;20056;-70
2022/09/18 11:48:19;;;;;;;5.75;1.70;;;20.50;67.70;;;;;;5041689;28;20052;-70
2022/09/18 11:50:45;;;;;;;3.97;1.60;;;20.50;67.70;;;;;;5037394;28;20041;-71
2022/09/18 11:53:17;;;;;;;4.78;1.70;;;20.50;67.80;;;;;;5056739;28;20049;-69
2022/09/18 11:55:49;;;;;;;4.97;1.55;;;20.50;67.80;;;;;;5056447;28;20056;-71
2022/09/18 11:58:16;;;;;;;6.78;1.88;;;20.50;67.80;;;;;;5023127;28;20073;-70
2022/09/18 12:01:24;;;;;;;5.43;1.80;;;20.50;67.90;;;;;;5059486;28;20049;-70
2022/09/18 12:04:14;;;;;;;4.63;1.58;;;20.60;67.80;;;;;;5034559;28;20098;-70
2022/09/18 12:06:54;;;;;;;4.32;1.63;;;20.50;67.90;;;;;;5027678;28;20060;-71
2022/09/18 12:09:26;;;;;;;7.65;2.20;;;20.50;67.90;;;;;;5055109;28;20044;-71
2022/09/18 12:12:07;;;;;;;5.47;1.70;;;20.60;67.90;;;;;;5040256;28;20455;-71
2022/09/18 12:15:24;;;;;;;4.15;1.20;;;20.50;67.90;;;;;;5052715;28;20045;-70
2022/09/18 12:18:03;;;;;;;4.18;1.27;;;20.50;68.50;;;;;;4978997;28;20046;-70
2022/09/18 12:20:34;;;;;;;5.88;1.60;;;20.60;67.80;;;;;;4990828;28;20445;-71
2022/09/18 12:23:01;;;;;;;4.10;1.30;;;20.60;68.00;;;;;;5026769;28;20056;-71
2022/09/18 12:25:51;;;;;;;4.57;1.15;;;20.60;67.90;;;;;;5033873;28;20530;-71
2022/09/18 12:28:49;;;;;;;3.83;1.30;;;20.60;67.80;;;;;;5036625;28;20049;-71
2022/09/18 12:31:27;;;;;;;3.37;1.27;;;20.60;67.80;;;;;;5051861;28;20115;-70
2022/09/18 12:34:10;;;;;;;5.70;1.23;;;20.50;67.80;;;;;;5018966;28;20586;-70
2022/09/18 12:36:51;;;;;;;4.85;1.20;;;20.60;67.80;;;;;;5034907;28;20052;-71
2022/09/18 12:39:28;;;;;;;5.43;1.30;;;20.60;67.80;;;;;;5033483;28;20041;-71
2022/09/18 12:42:17;;;;;;;2.55;1.00;;;20.50;67.70;;;;;;5039502;28;20140;-71
2022/09/18 12:45:06;;;;;;;6.10;1.27;;;20.50;68.30;;;;;;5029581;28;20045;-70
2022/09/18 12:47:35;;;;;;;3.88;1.17;;;20.50;67.70;;;;;;5026409;28;20071;-70
2022/09/18 12:50:15;;;;;;;;;;;20.50;67.70;;;;;;5061391;28;20040;-71
2022/09/18 12:52:59;;;;;;;5.50;1.15;;;20.50;67.50;;;;;;5062213;28;20356;-71
2022/09/18 12:55:38;;;;;;;4.18;1.10;;;20.50;67.60;;;;;;5065285;28;21035;-71
2022/09/18 12:58:37;;;;;;;5.70;1.40;;;20.50;67.60;;;;;;5058937;28;20496;-70
2022/09/18 13:01:24;;;;;;;4.22;0.88;;;20.50;67.60;;;;;;5053566;28;20586;-68
2022/09/18 13:03:54;;;;;;;4.60;0.93;;;20.50;67.50;;;;;;5049614;28;20053;-70
2022/09/18 13:06:34;;;;;;;9.55;1.38;;;20.50;67.60;;;;;;5042552;28;20450;-70
2022/09/18 13:09:20;;;;;;;2.97;0.95;;;20.50;67.60;;;;;;5020511;28;20396;-70
2022/09/18 13:11:54;;;;;;;4.10;0.75;;;20.50;67.50;;;;;;5044888;28;20102;-69
2022/09/18 13:14:35;;;;;;;3.88;1.10;;;20.50;67.50;;;;;;5035935;28;20751;-69